sensor_id;sensor_type;location;lat;lon;timestamp;P1;durP1;ratioP1;P2;durP2;ratioP2
63782;SDS011;49925;52.522;5.732;2022-07-29T07:53:19;15.45;;;4.55;;
63782;SDS011;49925;52.522;5.732;2022-07-29T07:55:47;11.82;;;5.13;;
63782;SDS011;49925;52.522;5.732;2022-07-29T07:58:34;11.23;;;5.20;;
63782;SDS011;49925;52.522;5.732;2022-07-29T08:01:01;15.55;;;5.57;;
63782;SDS011;49925;52.522;5.732;2022-07-29T08:03:29;13.60;;;4.57;;
63782;SDS011;49925;52.522;5.732;2022-07-29T08:05:56;12.65;;;5.15;;
63782;SDS011;49925;52.522;5.732;2022-07-29T08:08:23;15.30;;;4.68;;
63782;SDS011;49925;52.522;5.732;2022-07-29T08:10:50;12.85;;;5.13;;
63782;SDS011;49925;52.522;5.732;2022-07-29T08:13:30;15.45;;;4.47;;
63782;SDS011;49925;52.522;5.732;2022-07-29T08:15:58;15.88;;;4.80;;
63782;SDS011;49925;52.522;5.732;2022-07-29T08:18:28;16.85;;;5.00;;
63782;SDS011;49925;52.522;5.732;2022-07-29T08:20:57;12.05;;;4.68;;
63782;SDS011;49925;52.522;5.732;2022-07-29T08:23:24;13.68;;;5.15;;
63782;SDS011;49925;52.522;5.732;2022-07-29T08:26:11;19.83;;;5.32;;
63782;SDS011;49925;52.522;5.732;2022-07-29T08:28:42;11.73;;;5.03;;
63782;SDS011;49925;52.522;5.732;2022-07-29T08:31:12;16.10;;;4.97;;
63782;SDS011;49925;52.522;5.732;2022-07-29T08:33:41;10.95;;;5.18;;
63782;SDS011;49925;52.522;5.732;2022-07-29T08:36:08;24.85;;;5.68;;
63782;SDS011;49925;52.522;5.732;2022-07-29T08:38:36;17.23;;;5.47;;
63782;SDS011;49925;52.522;5.732;2022-07-29T08:41:03;18.67;;;5.00;;
63782;SDS011;49925;52.522;5.732;2022-07-29T08:43:30;7.97;;;4.85;;
63782;SDS011;49925;52.522;5.732;2022-07-29T08:45:58;9.48;;;4.55;;
63782;SDS011;49925;52.522;5.732;2022-07-29T08:48:25;15.43;;;5.30;;
63782;SDS011;49925;52.522;5.732;2022-07-29T08:50:54;13.25;;;4.85;;
63782;SDS011;49925;52.522;5.732;2022-07-29T08:53:23;15.63;;;4.90;;
63782;SDS011;49925;52.522;5.732;2022-07-29T08:55:53;15.30;;;4.70;;
63782;SDS011;49925;52.522;5.732;2022-07-29T09:49:23;17.05;;;5.40;;
63782;SDS011;49925;52.522;5.732;2022-07-29T09:52:04;13.25;;;4.88;;
63782;SDS011;49925;52.522;5.732;2022-07-29T09:54:34;14.23;;;5.25;;
63782;SDS011;49925;52.522;5.732;2022-07-29T09:57:08;18.10;;;5.53;;
63782;SDS011;49925;52.522;5.732;2022-07-29T10:00:00;16.35;;;5.22;;
63782;SDS011;49925;52.522;5.732;2022-07-29T10:02:42;13.88;;;5.78;;
63782;SDS011;49925;52.522;5.732;2022-07-29T10:05:22;17.98;;;4.93;;
63782;SDS011;49925;52.522;5.732;2022-07-29T10:07:52;12.30;;;5.05;;
63782;SDS011;49925;52.522;5.732;2022-07-29T10:12:58;14.38;;;5.18;;
63782;SDS011;49925;52.522;5.732;2022-07-29T10:15:34;14.30;;;5.65;;
63782;SDS011;49925;52.522;5.732;2022-07-29T10:18:05;12.38;;;5.70;;
63782;SDS011;49925;52.522;5.732;2022-07-29T10:20:34;17.33;;;6.95;;
63782;SDS011;49925;52.522;5.732;2022-07-29T10:23:01;20.00;;;7.30;;
63782;SDS011;49925;52.522;5.732;2022-07-29T10:25:28;22.17;;;6.50;;
63782;SDS011;49925;52.522;5.732;2022-07-29T10:27:56;20.20;;;6.72;;
63782;SDS011;49925;52.522;5.732;2022-07-29T10:30:24;15.20;;;6.00;;
63782;SDS011;49925;52.522;5.732;2022-07-29T10:42:18;16.10;;;5.53;;
63782;SDS011;49925;52.522;5.732;2022-07-29T10:44:59;17.08;;;5.40;;
63782;SDS011;49925;52.522;5.732;2022-07-29T14:29:31;16.85;;;6.07;;
63782;SDS011;49925;52.522;5.732;2022-07-29T14:32:04;20.35;;;6.40;;
63782;SDS011;49925;52.522;5.732;2022-07-29T14:39:32;17.80;;;7.80;;
63782;SDS011;49925;52.522;5.732;2022-07-29T14:42:04;23.10;;;7.28;;
63782;SDS011;49925;52.522;5.732;2022-07-29T14:44:31;17.00;;;7.28;;
63782;SDS011;49925;52.522;5.732;2022-07-29T14:46:59;26.65;;;8.15;;
63782;SDS011;49925;52.522;5.732;2022-07-29T14:49:33;18.27;;;7.65;;
63782;SDS011;49925;52.522;5.732;2022-07-29T14:52:01;22.90;;;7.95;;
63782;SDS011;49925;52.522;5.732;2022-07-29T14:54:28;23.40;;;8.52;;
63782;SDS011;49925;52.522;5.732;2022-07-29T14:56:55;21.48;;;7.18;;
63782;SDS011;49925;52.522;5.732;2022-07-29T14:59:24;20.38;;;6.57;;
63782;SDS011;49925;52.522;5.732;2022-07-29T15:01:52;21.85;;;5.30;;
63782;SDS011;49925;52.522;5.732;2022-07-29T15:04:19;19.27;;;6.95;;
63782;SDS011;49925;52.522;5.732;2022-07-29T15:06:47;13.70;;;5.90;;
63782;SDS011;49925;52.522;5.732;2022-07-29T15:09:15;16.30;;;6.20;;
63782;SDS011;49925;52.522;5.732;2022-07-29T15:11:42;28.75;;;6.53;;
63782;SDS011;49925;52.522;5.732;2022-07-29T15:14:09;16.65;;;6.20;;
63782;SDS011;49925;52.522;5.732;2022-07-29T15:16:39;20.88;;;5.53;;
63782;SDS011;49925;52.522;5.732;2022-07-29T15:19:11;26.17;;;6.70;;
63782;SDS011;49925;52.522;5.732;2022-07-29T15:21:39;17.55;;;6.20;;
63782;SDS011;49925;52.522;5.732;2022-07-29T15:24:14;18.95;;;6.32;;
63782;SDS011;49925;52.522;5.732;2022-07-29T15:26:43;22.67;;;7.75;;
63782;SDS011;49925;52.522;5.732;2022-07-29T15:29:14;23.63;;;6.65;;
63782;SDS011;49925;52.522;5.732;2022-07-29T15:31:41;24.60;;;7.55;;
63782;SDS011;49925;52.522;5.732;2022-07-29T15:34:09;21.73;;;7.40;;
63782;SDS011;49925;52.522;5.732;2022-07-29T15:36:37;31.40;;;7.07;;
63782;SDS011;49925;52.522;5.732;2022-07-29T15:39:20;20.63;;;7.97;;
63782;SDS011;49925;52.522;5.732;2022-07-29T15:41:48;22.52;;;8.02;;
63782;SDS011;49925;52.522;5.732;2022-07-29T15:44:19;23.85;;;8.13;;
63782;SDS011;49925;52.522;5.732;2022-07-29T15:49:30;27.35;;;8.57;;
63782;SDS011;49925;52.522;5.732;2022-07-29T15:52:15;20.33;;;7.75;;
63782;SDS011;49925;52.522;5.732;2022-07-29T15:54:51;20.33;;;7.30;;
63782;SDS011;49925;52.522;5.732;2022-07-29T15:57:23;19.77;;;7.07;;
63782;SDS011;49925;52.522;5.732;2022-07-29T15:59:50;27.38;;;8.27;;
63782;SDS011;49925;52.522;5.732;2022-07-29T16:02:17;17.15;;;6.90;;
63782;SDS011;49925;52.522;5.732;2022-07-29T16:04:45;31.27;;;7.05;;
63782;SDS011;49925;52.522;5.732;2022-07-29T16:07:12;24.50;;;8.75;;
63782;SDS011;49925;52.522;5.732;2022-07-29T16:09:41;22.63;;;8.27;;
63782;SDS011;49925;52.522;5.732;2022-07-29T17:34:27;24.00;;;7.72;;
63782;SDS011;49925;52.522;5.732;2022-07-29T17:36:54;24.85;;;8.57;;
63782;SDS011;49925;52.522;5.732;2022-07-29T17:39:22;23.90;;;6.90;;
63782;SDS011;49925;52.522;5.732;2022-07-29T17:41:49;25.50;;;7.75;;
63782;SDS011;49925;52.522;5.732;2022-07-29T17:44:16;17.40;;;8.55;;
63782;SDS011;49925;52.522;5.732;2022-07-29T17:46:43;26.10;;;7.68;;
63782;SDS011;49925;52.522;5.732;2022-07-29T17:49:11;19.48;;;7.63;;
63782;SDS011;49925;52.522;5.732;2022-07-29T17:51:38;23.25;;;7.60;;
63782;SDS011;49925;52.522;5.732;2022-07-29T17:54:05;29.83;;;8.55;;
63782;SDS011;49925;52.522;5.732;2022-07-29T17:56:32;17.92;;;7.65;;
63782;SDS011;49925;52.522;5.732;2022-07-29T17:58:59;26.60;;;7.75;;
63782;SDS011;49925;52.522;5.732;2022-07-29T23:37:25;27.52;;;10.52;;
63782;SDS011;49925;52.522;5.732;2022-07-29T23:39:53;30.52;;;9.50;;
63782;SDS011;49925;52.522;5.732;2022-07-29T23:42:20;27.50;;;10.23;;
63782;SDS011;49925;52.522;5.732;2022-07-29T23:44:47;26.65;;;9.05;;
63782;SDS011;49925;52.522;5.732;2022-07-29T23:47:15;21.77;;;9.05;;
63782;SDS011;49925;52.522;5.732;2022-07-29T23:49:42;20.05;;;8.05;;
63782;SDS011;49925;52.522;5.732;2022-07-29T23:52:09;24.77;;;8.82;;
63782;SDS011;49925;52.522;5.732;2022-07-29T23:54:36;25.08;;;8.25;;
63782;SDS011;49925;52.522;5.732;2022-07-29T23:57:03;17.92;;;8.10;;
63782;SDS011;49925;52.522;5.732;2022-07-29T23:59:31;38.90;;;8.95;;
